createdAt,value
2022-07-25T00:00:19.939Z,1003.85
2022-07-25T00:01:20.713Z,1003.80
2022-07-25T00:02:19.930Z,1003.78
2022-07-25T00:03:19.858Z,1003.76
2022-07-25T00:04:19.896Z,1003.79
2022-07-25T00:05:19.801Z,1003.75
2022-07-25T00:06:19.771Z,1003.75
2022-07-25T00:07:19.746Z,1003.74
2022-07-25T00:08:19.719Z,1003.69
2022-07-25T00:09:19.711Z,1003.70
2022-07-25T00:10:19.665Z,1003.68
2022-07-25T00:11:19.636Z,1003.64
2022-07-25T00:12:19.616Z,1003.60
2022-07-25T00:13:19.583Z,1003.63
2022-07-25T00:14:19.560Z,1003.61
2022-07-25T00:15:19.531Z,1003.58
2022-07-25T00:16:19.622Z,1003.60
2022-07-25T00:17:19.471Z,1003.59
2022-07-25T00:18:19.445Z,1003.58
2022-07-25T00:19:19.422Z,1003.56
2022-07-25T00:20:19.399Z,1003.55
2022-07-25T00:21:19.365Z,1003.56
2022-07-25T00:22:19.338Z,1003.52
2022-07-25T00:23:19.318Z,1003.52
2022-07-25T00:24:19.285Z,1003.50
2022-07-25T00:25:19.259Z,1003.48
2022-07-25T00:26:19.230Z,1003.48
2022-07-25T00:27:19.203Z,1003.46
2022-07-25T00:28:19.175Z,1003.45
2022-07-25T00:29:19.146Z,1003.44
2022-07-25T00:30:19.123Z,1003.40
2022-07-25T00:31:19.158Z,1003.41
2022-07-25T00:32:19.067Z,1003.37
2022-07-25T00:33:19.539Z,1003.36
2022-07-25T00:34:19.015Z,1003.36
2022-07-25T00:35:18.985Z,1003.36
2022-07-25T00:36:18.981Z,1003.35
2022-07-25T00:37:18.930Z,1003.32
2022-07-25T00:38:18.897Z,1003.32
2022-07-25T00:39:18.875Z,1003.27
2022-07-25T00:40:18.846Z,1003.27
2022-07-25T00:41:18.907Z,1003.28
2022-07-25T00:42:18.788Z,1003.25
2022-07-25T00:43:18.765Z,1003.25
2022-07-25T00:44:18.746Z,1003.26
2022-07-25T00:45:18.722Z,1003.25
2022-07-25T00:46:19.181Z,1003.31
2022-07-25T00:47:18.662Z,1003.31
2022-07-25T00:48:18.632Z,1003.33
2022-07-25T00:49:18.680Z,1003.32
2022-07-25T00:50:18.574Z,1003.31
2022-07-25T00:51:18.544Z,1003.34
2022-07-25T00:52:18.525Z,1003.32
2022-07-25T00:53:18.489Z,1003.31
2022-07-25T00:54:18.460Z,1003.28
2022-07-25T00:55:18.432Z,1003.26
2022-07-25T00:56:18.407Z,1003.31
2022-07-25T00:57:18.378Z,1003.27
2022-07-25T00:58:18.365Z,1003.27
2022-07-25T00:59:18.325Z,1003.28
2022-07-25T01:00:18.299Z,1003.27
2022-07-25T01:01:18.304Z,1003.25
2022-07-25T01:02:18.285Z,1003.27
2022-07-25T01:03:18.272Z,1003.25
2022-07-25T01:04:18.199Z,1003.22
2022-07-25T01:05:18.159Z,1003.22
2022-07-25T01:06:18.132Z,1003.19
2022-07-25T01:07:18.100Z,1003.17
2022-07-25T01:08:18.076Z,1003.20
2022-07-25T01:09:18.048Z,1003.19
2022-07-25T01:10:18.026Z,1003.17
2022-07-25T01:11:17.991Z,1003.14
2022-07-25T01:12:18.606Z,1003.15
2022-07-25T01:13:17.941Z,1003.12
2022-07-25T01:14:17.912Z,1003.11
2022-07-25T01:15:17.889Z,1003.12
2022-07-25T01:16:17.960Z,1003.12
2022-07-25T01:17:17.824Z,1003.10
2022-07-25T01:18:17.800Z,1003.13
2022-07-25T01:19:17.766Z,1003.10
2022-07-25T01:20:17.744Z,1003.13
2022-07-25T01:21:17.711Z,1003.11
2022-07-25T01:22:17.688Z,1003.07
2022-07-25T01:23:17.655Z,1003.12
2022-07-25T01:24:17.634Z,1003.08
2022-07-25T01:25:17.604Z,1003.13
2022-07-25T01:26:17.610Z,1003.10
2022-07-25T01:27:17.676Z,1003.12
2022-07-25T01:28:17.522Z,1003.11
2022-07-25T01:29:17.492Z,1003.09
2022-07-25T01:30:17.465Z,1003.08
2022-07-25T01:31:17.517Z,1003.06
2022-07-25T01:32:17.410Z,1003.07
2022-07-25T01:33:17.380Z,1003.06
2022-07-25T01:34:17.353Z,1003.06
2022-07-25T01:35:17.328Z,1003.09
2022-07-25T01:36:17.302Z,1003.06
2022-07-25T01:37:17.274Z,1003.05
2022-07-25T01:38:17.246Z,1003.00
2022-07-25T01:39:17.215Z,1003.00
2022-07-25T01:40:17.187Z,1002.97
2022-07-25T01:41:22.418Z,1002.95
2022-07-25T01:42:17.134Z,1002.91
2022-07-25T01:43:17.112Z,1002.89
2022-07-25T01:44:17.075Z,1002.85
2022-07-25T01:45:17.055Z,1002.79
2022-07-25T01:46:17.157Z,1002.80
2022-07-25T01:47:16.992Z,1002.81
2022-07-25T01:48:16.986Z,1002.82
2022-07-25T01:49:17.019Z,1002.83
2022-07-25T01:50:16.911Z,1002.84
2022-07-25T01:51:16.882Z,1002.84
2022-07-25T01:52:16.855Z,1002.82
2022-07-25T01:53:16.826Z,1002.84
2022-07-25T01:54:16.817Z,1002.83
2022-07-25T01:55:16.768Z,1002.83
2022-07-25T01:56:16.742Z,1002.85
2022-07-25T01:57:16.724Z,1002.83
2022-07-25T01:58:16.685Z,1002.81
2022-07-25T01:59:16.658Z,1002.82
2022-07-25T02:00:16.628Z,1002.85
2022-07-25T02:01:16.680Z,1002.79
2022-07-25T02:02:16.585Z,1002.78
2022-07-25T02:03:16.552Z,1002.80
2022-07-25T02:04:16.569Z,1002.79
2022-07-25T02:05:16.491Z,1002.76
2022-07-25T02:06:16.462Z,1002.80
2022-07-25T02:07:16.431Z,1002.79
2022-07-25T02:08:16.412Z,1002.80
2022-07-25T02:09:16.378Z,1002.79
2022-07-25T02:10:16.346Z,1002.82
2022-07-25T02:11:16.321Z,1002.75
2022-07-25T02:12:16.293Z,1002.77
2022-07-25T02:13:16.267Z,1002.72
2022-07-25T02:14:16.238Z,1002.71
2022-07-25T02:15:16.209Z,1002.65
2022-07-25T02:16:16.181Z,1002.65
2022-07-25T02:17:16.276Z,1002.63
2022-07-25T02:18:16.122Z,1002.63
2022-07-25T02:19:16.096Z,1002.63
2022-07-25T02:20:16.067Z,1002.63
2022-07-25T02:21:16.040Z,1002.65
2022-07-25T02:22:16.013Z,1002.65
2022-07-25T02:23:15.984Z,1002.62
2022-07-25T02:24:15.957Z,1002.61
2022-07-25T02:25:15.927Z,1002.61
2022-07-25T02:26:15.895Z,1002.61
2022-07-25T02:27:15.870Z,1002.60
2022-07-25T02:28:15.845Z,1002.59
2022-07-25T02:29:15.815Z,1002.58
2022-07-25T02:30:15.785Z,1002.56
2022-07-25T02:31:15.822Z,1002.52
2022-07-25T02:32:15.733Z,1002.49
2022-07-25T02:33:15.702Z,1002.51
2022-07-25T02:34:15.674Z,1002.48
2022-07-25T02:35:15.647Z,1002.49
2022-07-25T02:36:15.774Z,1002.44
2022-07-25T02:37:15.590Z,1002.46
2022-07-25T02:38:15.562Z,1002.45
2022-07-25T02:39:15.542Z,1002.41
2022-07-25T02:40:15.506Z,1002.40
2022-07-25T02:41:15.476Z,1002.39
2022-07-25T02:42:15.452Z,1002.39
2022-07-25T02:43:15.418Z,1002.40
2022-07-25T02:44:15.395Z,1002.37
2022-07-25T02:45:15.368Z,1002.38
2022-07-25T02:46:15.354Z,1002.36
2022-07-25T02:47:15.309Z,1002.36
2022-07-25T02:48:15.279Z,1002.35
2022-07-25T02:49:15.354Z,1002.35
2022-07-25T02:50:15.294Z,1002.31
2022-07-25T02:51:15.197Z,1002.29
2022-07-25T02:52:15.169Z,1002.31
2022-07-25T02:53:16.823Z,1002.32
2022-07-25T02:54:15.753Z,1002.28
2022-07-25T02:55:15.082Z,1002.26
2022-07-25T02:56:15.053Z,1002.27
2022-07-25T02:57:15.027Z,1002.27
2022-07-25T02:58:15.000Z,1002.22
2022-07-25T02:59:14.972Z,1002.22
2022-07-25T03:00:14.944Z,1002.20
2022-07-25T03:01:15.001Z,1002.23
2022-07-25T03:02:14.886Z,1002.22
2022-07-25T03:03:14.861Z,1002.18
2022-07-25T03:04:15.235Z,1002.16
2022-07-25T03:05:14.799Z,1002.16
2022-07-25T03:06:14.772Z,1002.16
2022-07-25T03:07:14.745Z,1002.18
2022-07-25T03:08:14.717Z,1002.18
2022-07-25T03:09:14.688Z,1002.12
2022-07-25T03:10:14.684Z,1002.11
2022-07-25T03:11:14.632Z,1002.11
2022-07-25T03:12:14.610Z,1002.07
2022-07-25T03:13:14.588Z,1002.09
2022-07-25T03:14:14.547Z,1002.02
2022-07-25T03:15:14.518Z,1002.05
2022-07-25T03:16:14.535Z,1002.09
2022-07-25T03:17:14.466Z,1002.03
2022-07-25T03:18:14.437Z,1002.02
2022-07-25T03:19:14.409Z,1002.02
2022-07-25T03:20:14.378Z,1001.98
2022-07-25T03:21:14.352Z,1001.99
2022-07-25T03:22:14.322Z,1001.97
2022-07-25T03:23:14.294Z,1001.95
2022-07-25T03:24:14.267Z,1001.92
2022-07-25T03:25:15.747Z,1001.88
2022-07-25T03:26:14.209Z,1001.92
2022-07-25T03:27:14.177Z,1001.92
2022-07-25T03:28:14.152Z,1001.92
2022-07-25T03:29:14.121Z,1001.93
2022-07-25T03:30:14.096Z,1001.90
2022-07-25T03:31:14.069Z,1001.90
2022-07-25T03:32:14.086Z,1001.85
2022-07-25T03:33:14.012Z,1001.86
2022-07-25T03:34:13.983Z,1001.86
2022-07-25T03:35:13.953Z,1001.84
2022-07-25T03:36:13.928Z,1001.87
2022-07-25T03:37:13.899Z,1001.83
2022-07-25T03:38:13.875Z,1001.85
2022-07-25T03:39:13.839Z,1001.83
2022-07-25T03:40:13.821Z,1001.81
2022-07-25T03:41:13.782Z,1001.79
2022-07-25T03:42:13.757Z,1001.77
2022-07-25T03:43:13.732Z,1001.78
2022-07-25T03:44:13.700Z,1001.76
2022-07-25T03:45:13.678Z,1001.76
2022-07-25T03:46:13.772Z,1001.77
2022-07-25T03:47:20.199Z,1001.77
2022-07-25T03:48:13.632Z,1001.77
2022-07-25T03:49:13.602Z,1001.78
2022-07-25T03:50:13.528Z,1001.77
2022-07-25T03:51:13.505Z,1001.76
2022-07-25T03:52:13.484Z,1001.75
2022-07-25T03:53:13.446Z,1001.73
2022-07-25T03:54:13.416Z,1001.75
2022-07-25T03:55:13.396Z,1001.73
2022-07-25T03:56:13.365Z,1001.72
2022-07-25T03:57:13.346Z,1001.68
2022-07-25T03:58:13.302Z,1001.70
2022-07-25T03:59:13.279Z,1001.69
2022-07-25T04:00:13.250Z,1001.66
2022-07-25T04:01:13.318Z,1001.64
2022-07-25T04:02:13.374Z,1001.63
2022-07-25T04:03:13.163Z,1001.66
2022-07-25T04:04:13.132Z,1001.61
2022-07-25T04:05:13.106Z,1001.64
2022-07-25T04:06:13.075Z,1001.66
2022-07-25T04:07:13.049Z,1001.62
2022-07-25T04:08:13.020Z,1001.63
2022-07-25T04:09:13.004Z,1001.61
2022-07-25T04:10:12.963Z,1001.56
2022-07-25T04:11:12.934Z,1001.55
2022-07-25T04:12:12.901Z,1001.55
2022-07-25T04:13:12.890Z,1001.55
2022-07-25T04:14:12.847Z,1001.58
2022-07-25T04:15:12.823Z,1001.56
2022-07-25T04:16:18.339Z,1001.53
2022-07-25T04:17:12.847Z,1001.54
2022-07-25T04:18:15.726Z,1001.55
2022-07-25T04:19:12.713Z,1001.55
2022-07-25T04:20:12.678Z,1001.55
2022-07-25T04:21:12.651Z,1001.56
2022-07-25T04:22:12.622Z,1001.52
2022-07-25T04:23:12.596Z,1001.53
2022-07-25T04:24:12.562Z,1001.51
2022-07-25T04:25:12.546Z,1001.52
2022-07-25T04:26:12.511Z,1001.52
2022-07-25T04:27:12.479Z,1001.54
2022-07-25T04:28:12.452Z,1001.54
2022-07-25T04:29:12.420Z,1001.55
2022-07-25T04:30:12.396Z,1001.55
2022-07-25T04:31:12.405Z,1001.53
2022-07-25T04:32:12.388Z,1001.52
2022-07-25T04:33:12.310Z,1001.48
2022-07-25T04:34:12.281Z,1001.42
2022-07-25T04:35:12.253Z,1001.45
2022-07-25T04:36:12.224Z,1001.43
2022-07-25T04:37:12.198Z,1001.41
2022-07-25T04:38:12.488Z,1001.40
2022-07-25T04:39:12.162Z,1001.38
2022-07-25T04:40:12.112Z,1001.39
2022-07-25T04:41:12.093Z,1001.32
2022-07-25T04:42:12.054Z,1001.33
2022-07-25T04:43:12.028Z,1001.32
2022-07-25T04:44:11.999Z,1001.31
2022-07-25T04:45:11.969Z,1001.32
2022-07-25T04:46:12.015Z,1001.32
2022-07-25T04:47:11.911Z,1001.29
2022-07-25T04:48:11.888Z,1001.27
2022-07-25T04:49:11.895Z,1001.29
2022-07-25T04:50:11.830Z,1001.31
2022-07-25T04:51:11.796Z,1001.24
2022-07-25T04:52:11.775Z,1001.26
2022-07-25T04:53:11.740Z,1001.27
2022-07-25T04:54:11.725Z,1001.26
2022-07-25T04:55:11.688Z,1001.25
2022-07-25T04:56:11.661Z,1001.25
2022-07-25T04:57:11.628Z,1001.26
2022-07-25T04:58:11.604Z,1001.25
2022-07-25T04:59:11.575Z,1001.25
2022-07-25T05:00:11.544Z,1001.27
2022-07-25T05:01:11.574Z,1001.27
2022-07-25T05:02:11.556Z,1001.28
2022-07-25T05:03:11.460Z,1001.29
2022-07-25T05:04:11.434Z,1001.20
2022-07-25T05:05:21.073Z,1001.22
2022-07-25T05:06:11.376Z,1001.20
2022-07-25T05:07:11.350Z,1001.18
2022-07-25T05:08:11.327Z,1001.21
2022-07-25T05:09:11.296Z,1001.21
2022-07-25T05:10:11.265Z,1001.17
2022-07-25T05:11:11.237Z,1001.15
2022-07-25T05:12:11.213Z,1001.13
2022-07-25T05:13:11.188Z,1001.11
2022-07-25T05:14:11.153Z,1001.09
2022-07-25T05:15:11.139Z,1001.13
2022-07-25T05:16:11.130Z,1001.12
2022-07-25T05:17:11.071Z,1001.09
2022-07-25T05:18:11.044Z,1001.09
2022-07-25T05:19:11.014Z,1001.09
2022-07-25T05:20:10.989Z,1001.10
2022-07-25T05:21:10.962Z,1001.11
2022-07-25T05:22:10.933Z,1001.13
2022-07-25T05:23:10.907Z,1001.11
2022-07-25T05:24:10.883Z,1001.11
2022-07-25T05:25:10.863Z,1001.11
2022-07-25T05:26:10.823Z,1001.10
2022-07-25T05:27:10.793Z,1001.11
2022-07-25T05:28:10.767Z,1001.13
2022-07-25T05:29:10.739Z,1001.15
2022-07-25T05:30:10.706Z,1001.08
2022-07-25T05:31:10.722Z,1001.05
2022-07-25T05:32:10.655Z,1001.08
2022-07-25T05:33:11.186Z,1001.07
2022-07-25T05:34:10.610Z,1001.06
2022-07-25T05:35:10.600Z,1001.05
2022-07-25T05:36:10.541Z,1001.02
2022-07-25T05:37:10.518Z,1001.01
2022-07-25T05:38:10.489Z,1001.03
2022-07-25T05:39:10.464Z,1000.99
2022-07-25T05:40:10.432Z,1000.98
2022-07-25T05:41:10.410Z,1000.99
2022-07-25T05:42:10.377Z,1000.96
2022-07-25T05:43:10.352Z,1000.96
2022-07-25T05:44:10.509Z,1000.98
2022-07-25T05:45:10.297Z,1000.97
2022-07-25T05:46:25.778Z,1000.97
2022-07-25T05:47:10.302Z,1000.96
2022-07-25T05:48:11.918Z,1000.94
2022-07-25T05:49:10.292Z,1000.94
2022-07-25T05:50:10.156Z,1000.94
2022-07-25T05:52:13.137Z,1000.90
2022-07-25T05:53:10.075Z,1000.91
2022-07-25T05:54:10.347Z,1000.88
2022-07-25T05:55:10.022Z,1000.85
2022-07-25T05:56:10.709Z,1000.84
2022-07-25T05:57:09.973Z,1000.85
2022-07-25T05:58:30.956Z,1000.85
2022-07-25T05:59:09.908Z,1000.82
2022-07-25T06:00:09.887Z,1000.81
2022-07-25T06:01:09.864Z,1000.83
2022-07-25T06:02:09.956Z,1000.85
2022-07-25T06:03:09.863Z,1000.85
2022-07-25T06:04:30.773Z,1000.86
2022-07-25T06:05:09.744Z,1000.81
2022-07-25T06:06:09.722Z,1000.82
2022-07-25T06:07:09.688Z,1000.79
2022-07-25T06:08:09.670Z,1000.81
2022-07-25T06:09:09.635Z,1000.81
2022-07-25T06:10:30.606Z,1000.78
2022-07-25T06:11:09.579Z,1000.82
2022-07-25T06:12:09.552Z,1000.78
2022-07-25T06:13:09.528Z,1000.81
2022-07-25T06:14:09.825Z,1000.82
2022-07-25T06:15:14.473Z,1000.78
2022-07-25T06:16:30.531Z,1000.80
2022-07-25T06:17:09.441Z,1000.79
2022-07-25T06:18:09.391Z,1000.83
2022-07-25T06:19:09.367Z,1000.87
2022-07-25T06:20:09.340Z,1000.81
2022-07-25T06:21:09.309Z,1000.85
2022-07-25T06:22:30.281Z,1000.86
2022-07-25T06:23:09.258Z,1000.84
2022-07-25T06:24:09.578Z,1000.86
2022-07-25T06:25:09.204Z,1000.87
2022-07-25T06:26:09.176Z,1000.87
2022-07-25T06:27:09.155Z,1000.89
2022-07-25T06:28:30.128Z,1000.93
2022-07-25T06:29:09.102Z,1000.92
2022-07-25T06:30:19.305Z,1000.92
2022-07-25T06:31:09.156Z,1000.91
2022-07-25T06:32:09.016Z,1000.94
2022-07-25T06:33:08.991Z,1000.95
2022-07-25T06:34:29.973Z,1000.97
2022-07-25T06:35:08.934Z,1000.96
2022-07-25T06:36:08.913Z,1000.91
2022-07-25T06:37:08.882Z,1000.95
2022-07-25T06:38:08.856Z,1000.91
2022-07-25T06:39:08.828Z,1000.90
2022-07-25T06:40:29.807Z,1000.91
2022-07-25T06:41:08.775Z,1000.90
2022-07-25T06:42:08.754Z,1000.88
2022-07-25T06:43:08.722Z,1000.85
2022-07-25T06:44:08.926Z,1000.83
2022-07-25T06:45:08.678Z,1000.85
2022-07-25T06:46:29.746Z,1000.88
2022-07-25T06:47:08.649Z,1000.90
2022-07-25T06:48:08.597Z,1000.88
2022-07-25T06:49:08.599Z,1000.93
2022-07-25T06:50:08.542Z,1000.90
2022-07-25T06:51:08.515Z,1000.93
2022-07-25T06:52:29.494Z,1000.95
2022-07-25T06:53:08.463Z,1000.97
2022-07-25T06:54:09.037Z,1000.95
2022-07-25T06:55:08.416Z,1000.94
2022-07-25T06:56:08.389Z,1000.92
2022-07-25T06:57:08.363Z,1000.91
2022-07-25T06:58:29.335Z,1000.84
2022-07-25T06:59:08.312Z,1000.79
2022-07-25T07:00:08.282Z,1000.78
2022-07-25T07:01:08.305Z,1000.81
2022-07-25T07:02:08.234Z,1000.76
2022-07-25T07:03:08.346Z,1000.72
2022-07-25T07:04:29.178Z,1000.78
2022-07-25T07:05:08.158Z,1000.72
2022-07-25T07:06:08.128Z,1000.71
2022-07-25T07:07:08.104Z,1000.71
2022-07-25T07:08:08.079Z,1000.68
2022-07-25T07:09:08.049Z,1000.65
2022-07-25T07:10:29.029Z,1000.68
2022-07-25T07:11:07.997Z,1000.69
2022-07-25T07:12:07.973Z,1000.67
2022-07-25T07:13:08.058Z,1000.66
2022-07-25T07:14:08.253Z,1000.70
2022-07-25T07:15:07.904Z,1000.68
2022-07-25T07:16:29.648Z,1000.67
2022-07-25T07:17:07.851Z,1000.66
2022-07-25T07:18:07.821Z,1000.71
2022-07-25T07:19:08.153Z,1000.68
2022-07-25T07:20:07.768Z,1000.68
2022-07-25T07:21:07.850Z,1000.70
2022-07-25T07:22:28.724Z,1000.65
2022-07-25T07:23:07.692Z,1000.66
2022-07-25T07:24:23.189Z,1000.62
2022-07-25T07:25:07.645Z,1000.58
2022-07-25T07:26:07.615Z,1000.60
2022-07-25T07:27:07.600Z,1000.58
2022-07-25T07:28:28.571Z,1000.64
2022-07-25T07:29:07.764Z,1000.62
2022-07-25T07:30:07.517Z,1000.60
2022-07-25T07:31:16.761Z,1000.63
2022-07-25T07:32:07.512Z,1000.65
2022-07-25T07:33:07.444Z,1000.60
2022-07-25T07:34:28.417Z,1000.60
2022-07-25T07:35:07.395Z,1000.62
2022-07-25T07:36:07.377Z,1000.60
2022-07-25T07:37:07.346Z,1000.59
2022-07-25T07:38:07.316Z,1000.63
2022-07-25T07:39:07.646Z,1000.64
2022-07-25T07:40:28.267Z,1000.65
2022-07-25T07:41:07.246Z,1000.67
2022-07-25T07:42:07.215Z,1000.63
2022-07-25T07:43:07.193Z,1000.68
2022-07-25T07:44:07.167Z,1000.69
2022-07-25T07:45:07.143Z,1000.67
2022-07-25T07:46:28.188Z,1000.66
2022-07-25T07:47:07.092Z,1000.68
2022-07-25T07:48:07.062Z,1000.67
2022-07-25T07:49:07.476Z,1000.68
2022-07-25T07:50:07.018Z,1000.65
2022-07-25T07:51:06.989Z,1000.67
2022-07-25T07:52:27.960Z,1000.64
2022-07-25T07:53:06.943Z,1000.66
2022-07-25T07:54:06.913Z,1000.60
2022-07-25T07:55:06.889Z,1000.55
2022-07-25T07:56:06.867Z,1000.53
2022-07-25T07:57:06.840Z,1000.56
2022-07-25T07:58:27.815Z,1000.50
2022-07-25T07:59:07.062Z,1000.50
2022-07-25T08:00:06.763Z,1000.52
2022-07-25T08:01:06.740Z,1000.56
2022-07-25T08:02:06.774Z,1000.57
2022-07-25T08:03:06.793Z,1000.56
2022-07-25T08:04:27.667Z,1000.57
2022-07-25T08:05:06.643Z,1000.60
2022-07-25T08:06:06.618Z,1000.62
2022-07-25T08:07:06.786Z,1000.64
2022-07-25T08:08:06.562Z,1000.60
2022-07-25T08:09:06.934Z,1000.60
2022-07-25T08:10:27.512Z,1000.70
2022-07-25T08:11:06.485Z,1000.69
2022-07-25T08:12:06.463Z,1000.71
2022-07-25T08:13:06.434Z,1000.68
2022-07-25T08:14:06.798Z,1000.67
2022-07-25T08:15:06.392Z,1000.68
2022-07-25T08:16:27.417Z,1000.67
2022-07-25T08:17:06.337Z,1000.67
2022-07-25T08:18:06.315Z,1000.63
2022-07-25T08:19:06.297Z,1000.62
2022-07-25T08:20:27.910Z,1000.64
2022-07-25T08:21:06.378Z,1000.66
2022-07-25T08:22:27.216Z,1000.70
2022-07-25T08:23:06.191Z,1000.70
2022-07-25T08:24:06.967Z,1000.72
2022-07-25T08:25:06.139Z,1000.68
2022-07-25T08:26:06.130Z,1000.67
2022-07-25T08:27:06.103Z,1000.63
2022-07-25T08:28:27.069Z,1000.65
2022-07-25T08:29:18.854Z,1000.69
2022-07-25T08:30:06.024Z,1000.69
2022-07-25T08:31:06.026Z,1000.69
2022-07-25T08:32:05.964Z,1000.69
2022-07-25T08:33:05.943Z,1000.76
2022-07-25T08:34:26.917Z,1000.71
2022-07-25T08:35:11.008Z,1000.74
2022-07-25T08:36:05.878Z,1000.79
2022-07-25T08:37:05.846Z,1000.80
2022-07-25T08:38:05.821Z,1000.83
2022-07-25T08:39:05.802Z,1000.83
2022-07-25T08:40:26.771Z,1000.85
2022-07-25T08:41:05.743Z,1000.84
2022-07-25T08:42:10.802Z,1000.93
2022-07-25T08:43:05.701Z,1000.91
2022-07-25T08:44:06.064Z,1000.88
2022-07-25T08:45:05.650Z,1000.90
2022-07-25T08:46:26.662Z,1000.87
2022-07-25T08:47:05.599Z,1000.89
2022-07-25T08:48:05.574Z,1000.94
2022-07-25T08:49:05.665Z,1000.92
2022-07-25T08:50:05.535Z,1000.93
2022-07-25T08:51:05.499Z,1000.93
2022-07-25T08:52:29.275Z,1000.92
2022-07-25T08:53:31.683Z,1000.91
2022-07-25T08:54:05.716Z,1000.93
2022-07-25T08:55:05.401Z,1000.87
2022-07-25T08:56:10.650Z,1000.95
2022-07-25T08:57:05.352Z,1000.94
2022-07-25T08:58:26.324Z,1000.93
2022-07-25T08:59:05.304Z,1001.00
2022-07-25T09:00:05.275Z,1000.97
2022-07-25T09:01:05.254Z,1001.02
2022-07-25T09:02:05.334Z,1001.07
2022-07-25T09:03:05.314Z,1001.02
2022-07-25T09:04:26.173Z,1001.02
2022-07-25T09:05:05.151Z,1000.97
2022-07-25T09:06:05.135Z,1001.02
2022-07-25T09:07:08.243Z,1001.03
2022-07-25T09:08:05.083Z,1001.01
2022-07-25T09:09:05.054Z,1001.08
2022-07-25T09:10:26.026Z,1001.12
2022-07-25T09:11:05.103Z,1001.12
2022-07-25T09:12:04.975Z,1001.17
2022-07-25T09:13:04.960Z,1001.15
2022-07-25T09:14:05.844Z,1001.10
2022-07-25T09:15:04.907Z,1001.14
2022-07-25T09:16:26.009Z,1001.09
2022-07-25T09:17:04.855Z,1001.12
2022-07-25T09:18:04.823Z,1001.11
2022-07-25T09:19:04.806Z,1001.13
2022-07-25T09:20:04.773Z,1001.15
2022-07-25T09:21:04.756Z,1001.24
2022-07-25T09:22:25.725Z,1001.20
2022-07-25T09:23:04.702Z,1001.20
2022-07-25T09:24:05.007Z,1001.11
2022-07-25T09:25:04.660Z,1001.13
2022-07-25T09:26:04.640Z,1001.03
2022-07-25T09:27:04.600Z,1001.07
2022-07-25T09:28:25.580Z,1001.12
2022-07-25T09:29:04.550Z,1001.12
2022-07-25T09:30:04.525Z,1001.16
2022-07-25T09:31:04.541Z,1001.13
2022-07-25T09:32:04.477Z,1001.20
2022-07-25T09:33:04.456Z,1001.24
2022-07-25T09:34:25.712Z,1001.27
2022-07-25T09:35:04.399Z,1001.25
2022-07-25T09:36:04.386Z,1001.28
2022-07-25T09:37:04.348Z,1001.33
2022-07-25T09:38:04.330Z,1001.29
2022-07-25T09:39:04.306Z,1001.29
2022-07-25T09:40:25.280Z,1001.33
2022-07-25T09:41:04.255Z,1001.29
2022-07-25T09:42:04.229Z,1001.36
2022-07-25T09:43:04.209Z,1001.42
2022-07-25T09:44:04.582Z,1001.43
2022-07-25T09:45:04.158Z,1001.46
2022-07-25T09:46:25.189Z,1001.51
2022-07-25T09:47:04.103Z,1001.56
2022-07-25T09:48:04.075Z,1001.61
2022-07-25T09:49:04.127Z,1001.62
2022-07-25T09:50:04.029Z,1001.64
2022-07-25T09:51:04.012Z,1001.67
2022-07-25T09:52:24.994Z,1001.68
2022-07-25T09:53:03.954Z,1001.69
2022-07-25T09:54:04.259Z,1001.70
2022-07-25T09:55:03.900Z,1001.68
2022-07-25T09:56:03.873Z,1001.66
2022-07-25T09:57:03.861Z,1001.64
2022-07-25T09:58:24.827Z,1001.62
2022-07-25T09:59:03.807Z,1001.64
2022-07-25T10:00:03.780Z,1001.65
2022-07-25T10:01:03.824Z,1001.66
2022-07-25T10:02:03.843Z,1001.65
2022-07-25T10:03:03.782Z,1001.67
2022-07-25T10:04:24.680Z,1001.68
2022-07-25T10:05:03.647Z,1001.67
2022-07-25T10:06:03.621Z,1001.63
2022-07-25T10:07:03.610Z,1001.63
2022-07-25T10:08:03.586Z,1001.65
2022-07-25T10:09:03.552Z,1001.65
2022-07-25T10:10:24.524Z,1001.62
2022-07-25T10:11:03.497Z,1001.63
2022-07-25T10:12:03.471Z,1001.58
2022-07-25T10:13:09.445Z,1001.57
2022-07-25T10:14:03.488Z,1001.51
2022-07-25T10:15:03.397Z,1001.50
2022-07-25T10:16:24.444Z,1001.46
2022-07-25T10:17:03.464Z,1001.42
2022-07-25T10:18:03.320Z,1001.34
2022-07-25T10:19:03.290Z,1001.23
2022-07-25T10:20:03.264Z,1001.11
2022-07-25T10:21:13.568Z,1001.06
2022-07-25T10:22:46.544Z,1001.07
2022-07-25T10:23:03.188Z,1001.12
2022-07-25T10:24:03.317Z,1001.21
2022-07-25T10:25:03.136Z,1001.32
2022-07-25T10:26:03.110Z,1001.36
2022-07-25T10:27:03.085Z,1001.45
2022-07-25T10:28:24.060Z,1001.44
2022-07-25T10:29:03.039Z,1001.43
2022-07-25T10:30:03.006Z,1001.49
2022-07-25T10:31:03.018Z,1001.50
2022-07-25T10:32:02.960Z,1001.53
2022-07-25T10:33:02.933Z,1001.48
2022-07-25T10:34:23.905Z,1001.46
2022-07-25T10:35:02.902Z,1001.39
2022-07-25T10:36:02.858Z,1001.39
2022-07-25T10:37:02.835Z,1001.45
2022-07-25T10:38:02.815Z,1001.48
2022-07-25T10:39:02.778Z,1001.51
2022-07-25T10:40:23.755Z,1001.50
2022-07-25T10:41:02.730Z,1001.49
2022-07-25T10:42:02.710Z,1001.53
2022-07-25T10:43:02.680Z,1001.46
2022-07-25T10:44:02.656Z,1001.50
2022-07-25T10:45:02.676Z,1001.57
2022-07-25T10:46:23.715Z,1001.55
2022-07-25T10:47:02.578Z,1001.54
2022-07-25T10:48:02.550Z,1001.53
2022-07-25T10:49:02.616Z,1001.57
2022-07-25T10:50:34.678Z,1001.58
2022-07-25T10:51:02.478Z,1001.57
2022-07-25T10:52:23.459Z,1001.56
2022-07-25T10:53:02.434Z,1001.58
2022-07-25T10:54:02.407Z,1001.59
2022-07-25T10:55:02.376Z,1001.63
2022-07-25T10:56:06.025Z,1001.67
2022-07-25T10:57:02.321Z,1001.68
2022-07-25T10:58:23.295Z,1001.66
2022-07-25T10:59:02.285Z,1001.65
2022-07-25T11:00:02.249Z,1001.62
2022-07-25T11:01:02.298Z,1001.65
2022-07-25T11:02:02.294Z,1001.60
2022-07-25T11:03:02.230Z,1001.57
2022-07-25T11:04:23.146Z,1001.54
2022-07-25T11:05:02.165Z,1001.62
2022-07-25T11:06:02.105Z,1001.62
2022-07-25T11:07:09.312Z,1001.61
2022-07-25T11:09:06.832Z,1001.61
2022-07-25T11:10:06.467Z,1001.59
2022-07-25T11:12:10.376Z,1001.59
2022-07-25T11:13:10.350Z,1001.60
2022-07-25T11:15:17.225Z,1001.64
2022-07-25T11:16:14.285Z,1001.63
2022-07-25T11:18:07.080Z,1001.56
2022-07-25T11:19:07.418Z,1001.59
2022-07-25T11:21:10.974Z,1001.58
2022-07-25T11:22:10.935Z,1001.59
2022-07-25T11:24:14.847Z,1001.59
2022-07-25T11:25:14.817Z,1001.54
2022-07-25T11:27:18.751Z,1001.56
2022-07-25T11:28:18.707Z,1001.58
2022-07-25T11:29:18.684Z,1001.52
2022-07-25T11:30:18.659Z,1001.54
2022-07-25T11:31:18.709Z,1001.54
2022-07-25T11:32:18.665Z,1001.61
2022-07-25T11:33:18.582Z,1001.60
2022-07-25T11:34:18.556Z,1001.65
2022-07-25T11:35:18.531Z,1001.56
2022-07-25T11:36:18.507Z,1001.58
2022-07-25T11:37:18.482Z,1001.59
2022-07-25T11:38:18.465Z,1001.64
2022-07-25T11:39:18.990Z,1001.65
2022-07-25T11:40:18.409Z,1001.68
2022-07-25T11:41:18.383Z,1001.67
2022-07-25T11:42:18.356Z,1001.68
2022-07-25T11:43:18.333Z,1001.75
2022-07-25T11:44:18.309Z,1001.82
2022-07-25T11:45:18.288Z,1001.77
2022-07-25T11:46:18.554Z,1001.75
2022-07-25T11:47:20.828Z,1001.79
2022-07-25T11:48:18.214Z,1001.74
2022-07-25T11:49:18.238Z,1001.76
2022-07-25T11:50:18.175Z,1001.83
2022-07-25T11:51:19.101Z,1001.86
2022-07-25T11:52:18.119Z,1001.82
2022-07-25T11:53:18.092Z,1001.84
2022-07-25T11:54:18.078Z,1001.82
2022-07-25T11:55:18.046Z,1001.92
2022-07-25T11:56:40.934Z,1001.85
2022-07-25T11:57:18.018Z,1001.79
2022-07-25T11:58:17.979Z,1001.82
2022-07-25T11:59:17.945Z,1001.87
2022-07-25T12:00:17.924Z,1001.81
2022-07-25T12:01:17.900Z,1001.78
2022-07-25T12:02:17.997Z,1001.82
2022-07-25T12:03:20.313Z,1001.84
2022-07-25T12:04:17.847Z,1001.67
2022-07-25T12:05:17.809Z,1001.63
2022-07-25T12:06:17.781Z,1001.72
2022-07-25T12:07:17.755Z,1001.78
2022-07-25T12:08:17.742Z,1001.82
2022-07-25T12:09:19.082Z,1001.92
2022-07-25T12:10:17.697Z,1001.77
2022-07-25T12:11:17.665Z,1001.79
2022-07-25T12:12:17.643Z,1001.77
2022-07-25T12:13:17.623Z,1001.78